sensor_id;sensor_type;location;lat;lon;timestamp;P1;durP1;ratioP1;P2;durP2;ratioP2
21356;SDS011;10836;53.068;18.234;2022-09-09T00:04:00;17.58;;;8.38;;
21356;SDS011;10836;53.068;18.234;2022-09-09T00:06:43;16.92;;;8.43;;
21356;SDS011;10836;53.068;18.234;2022-09-09T00:09:15;17.73;;;8.57;;
21356;SDS011;10836;53.068;18.234;2022-09-09T00:11:46;21.08;;;9.25;;
21356;SDS011;10836;53.068;18.234;2022-09-09T00:14:25;16.75;;;8.20;;
21356;SDS011;10836;53.068;18.234;2022-09-09T00:17:02;16.30;;;9.05;;
21356;SDS011;10836;53.068;18.234;2022-09-09T00:19:41;16.85;;;8.38;;
21356;SDS011;10836;53.068;18.234;2022-09-09T00:22:18;17.75;;;9.25;;
21356;SDS011;10836;53.068;18.234;2022-09-09T00:30:15;22.88;;;10.02;;
21356;SDS011;10836;53.068;18.234;2022-09-09T00:32:46;17.38;;;9.60;;
21356;SDS011;10836;53.068;18.234;2022-09-09T00:35:34;23.55;;;11.18;;
21356;SDS011;10836;53.068;18.234;2022-09-09T00:38:12;18.85;;;10.30;;
21356;SDS011;10836;53.068;18.234;2022-09-09T00:43:32;17.85;;;10.75;;
21356;SDS011;10836;53.068;18.234;2022-09-09T00:49:23;19.33;;;10.20;;
21356;SDS011;10836;53.068;18.234;2022-09-09T00:51:34;21.42;;;9.55;;
21356;SDS011;10836;53.068;18.234;2022-09-09T00:57:05;20.33;;;10.02;;
21356;SDS011;10836;53.068;18.234;2022-09-09T01:02:15;16.23;;;9.93;;
21356;SDS011;10836;53.068;18.234;2022-09-09T01:05:00;17.13;;;10.35;;
21356;SDS011;10836;53.068;18.234;2022-09-09T01:07:34;15.93;;;9.25;;
21356;SDS011;10836;53.068;18.234;2022-09-09T01:10:04;17.23;;;10.60;;
21356;SDS011;10836;53.068;18.234;2022-09-09T01:12:40;17.27;;;9.43;;
21356;SDS011;10836;53.068;18.234;2022-09-09T01:15:12;18.00;;;8.88;;
21356;SDS011;10836;53.068;18.234;2022-09-09T01:20:44;15.95;;;9.13;;
21356;SDS011;10836;53.068;18.234;2022-09-09T01:26:15;15.70;;;9.63;;
21356;SDS011;10836;53.068;18.234;2022-09-09T01:28:49;18.58;;;10.13;;
21356;SDS011;10836;53.068;18.234;2022-09-09T01:31:29;17.05;;;10.38;;
21356;SDS011;10836;53.068;18.234;2022-09-09T01:34:02;18.45;;;10.38;;
21356;SDS011;10836;53.068;18.234;2022-09-09T01:36:39;16.23;;;10.20;;
21356;SDS011;10836;53.068;18.234;2022-09-09T01:39:09;15.95;;;9.90;;
21356;SDS011;10836;53.068;18.234;2022-09-09T01:41:38;16.27;;;10.45;;
21356;SDS011;10836;53.068;18.234;2022-09-09T01:44:09;19.92;;;10.65;;
21356;SDS011;10836;53.068;18.234;2022-09-09T01:46:38;16.50;;;9.68;;
21356;SDS011;10836;53.068;18.234;2022-09-09T01:49:12;18.83;;;11.40;;
21356;SDS011;10836;53.068;18.234;2022-09-09T01:51:39;18.20;;;10.75;;
21356;SDS011;10836;53.068;18.234;2022-09-09T01:54:12;18.38;;;10.27;;
21356;SDS011;10836;53.068;18.234;2022-09-09T01:56:42;16.83;;;10.80;;
21356;SDS011;10836;53.068;18.234;2022-09-09T02:04:39;20.57;;;10.53;;
21356;SDS011;10836;53.068;18.234;2022-09-09T02:09:41;18.38;;;11.82;;
21356;SDS011;10836;53.068;18.234;2022-09-09T02:12:11;16.67;;;10.07;;
21356;SDS011;10836;53.068;18.234;2022-09-09T02:14:52;16.80;;;11.25;;
21356;SDS011;10836;53.068;18.234;2022-09-09T02:17:31;21.13;;;12.55;;
21356;SDS011;10836;53.068;18.234;2022-09-09T02:20:10;17.97;;;11.50;;
21356;SDS011;10836;53.068;18.234;2022-09-09T02:22:47;17.45;;;11.60;;
21356;SDS011;10836;53.068;18.234;2022-09-09T02:25:19;17.40;;;11.77;;
21356;SDS011;10836;53.068;18.234;2022-09-09T02:27:51;19.58;;;11.75;;
21356;SDS011;10836;53.068;18.234;2022-09-09T02:30:18;17.63;;;11.70;;
21356;SDS011;10836;53.068;18.234;2022-09-09T02:32:56;15.80;;;11.23;;
21356;SDS011;10836;53.068;18.234;2022-09-09T02:35:39;19.17;;;11.20;;
21356;SDS011;10836;53.068;18.234;2022-09-09T02:38:10;18.55;;;11.38;;
21356;SDS011;10836;53.068;18.234;2022-09-09T02:40:44;19.48;;;10.90;;
21356;SDS011;10836;53.068;18.234;2022-09-09T02:43:13;16.67;;;11.20;;
21356;SDS011;10836;53.068;18.234;2022-09-09T02:49:08;19.90;;;12.00;;
21356;SDS011;10836;53.068;18.234;2022-09-09T02:51:43;17.42;;;10.57;;
21356;SDS011;10836;53.068;18.234;2022-09-09T02:54:25;21.00;;;10.40;;
21356;SDS011;10836;53.068;18.234;2022-09-09T02:57:11;18.00;;;11.77;;
21356;SDS011;10836;53.068;18.234;2022-09-09T02:59:46;19.65;;;11.30;;
21356;SDS011;10836;53.068;18.234;2022-09-09T03:02:13;17.33;;;12.02;;
21356;SDS011;10836;53.068;18.234;2022-09-09T03:04:44;18.30;;;11.07;;
21356;SDS011;10836;53.068;18.234;2022-09-09T03:07:12;17.52;;;11.65;;
21356;SDS011;10836;53.068;18.234;2022-09-09T03:09:41;20.05;;;11.27;;
21356;SDS011;10836;53.068;18.234;2022-09-09T03:12:09;17.20;;;12.10;;
21356;SDS011;10836;53.068;18.234;2022-09-09T03:14:38;19.15;;;11.25;;
21356;SDS011;10836;53.068;18.234;2022-09-09T03:17:05;17.33;;;11.20;;
21356;SDS011;10836;53.068;18.234;2022-09-09T03:19:37;17.83;;;11.57;;
21356;SDS011;10836;53.068;18.234;2022-09-09T03:22:08;17.00;;;11.75;;
21356;SDS011;10836;53.068;18.234;2022-09-09T03:24:39;27.48;;;11.90;;
21356;SDS011;10836;53.068;18.234;2022-09-09T03:27:06;16.30;;;11.88;;
21356;SDS011;10836;53.068;18.234;2022-09-09T03:29:36;17.58;;;11.68;;
21356;SDS011;10836;53.068;18.234;2022-09-09T03:32:06;18.10;;;11.90;;
21356;SDS011;10836;53.068;18.234;2022-09-09T03:34:33;19.30;;;12.40;;
21356;SDS011;10836;53.068;18.234;2022-09-09T03:37:00;16.60;;;11.90;;
21356;SDS011;10836;53.068;18.234;2022-09-09T03:39:27;20.52;;;12.80;;
21356;SDS011;10836;53.068;18.234;2022-09-09T03:41:55;17.88;;;12.25;;
21356;SDS011;10836;53.068;18.234;2022-09-09T03:44:22;17.48;;;12.38;;
21356;SDS011;10836;53.068;18.234;2022-09-09T03:46:49;19.33;;;12.65;;
21356;SDS011;10836;53.068;18.234;2022-09-09T03:49:17;21.17;;;12.90;;
21356;SDS011;10836;53.068;18.234;2022-09-09T03:51:44;18.80;;;13.17;;
21356;SDS011;10836;53.068;18.234;2022-09-09T03:54:13;20.57;;;13.73;;
21356;SDS011;10836;53.068;18.234;2022-09-09T03:56:40;18.87;;;13.03;;
21356;SDS011;10836;53.068;18.234;2022-09-09T03:59:11;23.55;;;14.80;;
21356;SDS011;10836;53.068;18.234;2022-09-09T04:01:38;21.55;;;15.25;;
21356;SDS011;10836;53.068;18.234;2022-09-09T04:04:05;21.60;;;15.27;;
21356;SDS011;10836;53.068;18.234;2022-09-09T04:06:33;22.85;;;15.85;;
21356;SDS011;10836;53.068;18.234;2022-09-09T04:09:00;25.13;;;16.55;;
21356;SDS011;10836;53.068;18.234;2022-09-09T04:11:30;24.52;;;17.73;;
21356;SDS011;10836;53.068;18.234;2022-09-09T04:13:59;26.95;;;18.35;;
21356;SDS011;10836;53.068;18.234;2022-09-09T04:16:27;26.00;;;18.73;;
21356;SDS011;10836;53.068;18.234;2022-09-09T04:18:54;27.75;;;18.83;;
21356;SDS011;10836;53.068;18.234;2022-09-09T04:21:22;27.02;;;20.00;;
21356;SDS011;10836;53.068;18.234;2022-09-09T04:23:49;27.75;;;20.70;;
21356;SDS011;10836;53.068;18.234;2022-09-09T04:26:18;26.90;;;20.55;;
21356;SDS011;10836;53.068;18.234;2022-09-09T04:28:45;30.23;;;20.77;;
21356;SDS011;10836;53.068;18.234;2022-09-09T04:31:17;29.67;;;21.73;;
21356;SDS011;10836;53.068;18.234;2022-09-09T04:33:53;28.65;;;22.02;;
21356;SDS011;10836;53.068;18.234;2022-09-09T04:36:20;31.50;;;23.42;;
21356;SDS011;10836;53.068;18.234;2022-09-09T04:38:49;31.80;;;22.75;;
21356;SDS011;10836;53.068;18.234;2022-09-09T04:41:16;33.30;;;23.42;;
21356;SDS011;10836;53.068;18.234;2022-09-09T04:43:46;33.38;;;23.42;;
21356;SDS011;10836;53.068;18.234;2022-09-09T04:46:14;31.05;;;23.08;;
21356;SDS011;10836;53.068;18.234;2022-09-09T04:48:44;29.88;;;21.98;;
21356;SDS011;10836;53.068;18.234;2022-09-09T04:51:12;34.15;;;22.90;;
21356;SDS011;10836;53.068;18.234;2022-09-09T04:53:41;34.17;;;23.60;;
21356;SDS011;10836;53.068;18.234;2022-09-09T04:56:12;35.58;;;25.15;;
21356;SDS011;10836;53.068;18.234;2022-09-09T04:58:45;39.42;;;24.75;;
21356;SDS011;10836;53.068;18.234;2022-09-09T05:03:46;33.20;;;23.98;;
21356;SDS011;10836;53.068;18.234;2022-09-09T05:06:18;37.85;;;26.38;;
21356;SDS011;10836;53.068;18.234;2022-09-09T05:08:50;39.17;;;25.83;;
21356;SDS011;10836;53.068;18.234;2022-09-09T05:11:23;44.20;;;27.05;;
21356;SDS011;10836;53.068;18.234;2022-09-09T05:13:59;35.95;;;26.40;;
21356;SDS011;10836;53.068;18.234;2022-09-09T05:16:28;36.33;;;25.83;;
21356;SDS011;10836;53.068;18.234;2022-09-09T05:18:57;33.58;;;25.58;;
21356;SDS011;10836;53.068;18.234;2022-09-09T05:21:25;41.30;;;25.42;;
21356;SDS011;10836;53.068;18.234;2022-09-09T05:23:54;36.05;;;26.98;;
21356;SDS011;10836;53.068;18.234;2022-09-09T05:26:21;36.13;;;26.58;;
21356;SDS011;10836;53.068;18.234;2022-09-09T05:28:51;40.03;;;27.10;;
21356;SDS011;10836;53.068;18.234;2022-09-09T05:31:18;37.88;;;26.60;;
21356;SDS011;10836;53.068;18.234;2022-09-09T05:33:49;33.83;;;24.33;;
21356;SDS011;10836;53.068;18.234;2022-09-09T05:36:17;38.53;;;26.35;;
21356;SDS011;10836;53.068;18.234;2022-09-09T05:38:49;35.22;;;25.67;;
21356;SDS011;10836;53.068;18.234;2022-09-09T05:41:18;36.45;;;23.63;;
21356;SDS011;10836;53.068;18.234;2022-09-09T05:43:47;37.70;;;24.05;;
21356;SDS011;10836;53.068;18.234;2022-09-09T05:46:15;39.78;;;21.55;;
21356;SDS011;10836;53.068;18.234;2022-09-09T05:48:46;36.45;;;21.70;;
21356;SDS011;10836;53.068;18.234;2022-09-09T05:51:16;34.08;;;21.42;;
21356;SDS011;10836;53.068;18.234;2022-09-09T05:53:55;33.25;;;21.30;;
21356;SDS011;10836;53.068;18.234;2022-09-09T05:56:28;37.85;;;23.27;;
21356;SDS011;10836;53.068;18.234;2022-09-09T05:58:58;34.42;;;22.73;;
21356;SDS011;10836;53.068;18.234;2022-09-09T06:01:28;44.83;;;26.58;;
21356;SDS011;10836;53.068;18.234;2022-09-09T06:03:57;39.10;;;25.25;;
21356;SDS011;10836;53.068;18.234;2022-09-09T06:06:25;46.65;;;26.35;;
21356;SDS011;10836;53.068;18.234;2022-09-09T06:09:09;42.77;;;24.97;;
21356;SDS011;10836;53.068;18.234;2022-09-09T06:11:40;40.70;;;25.55;;
21356;SDS011;10836;53.068;18.234;2022-09-09T06:14:08;44.10;;;23.98;;
21356;SDS011;10836;53.068;18.234;2022-09-09T06:16:37;43.67;;;23.60;;
21356;SDS011;10836;53.068;18.234;2022-09-09T06:19:11;44.00;;;24.98;;
21356;SDS011;10836;53.068;18.234;2022-09-09T06:21:40;42.05;;;22.08;;
21356;SDS011;10836;53.068;18.234;2022-09-09T06:24:08;49.15;;;23.73;;
21356;SDS011;10836;53.068;18.234;2022-09-09T06:26:36;41.20;;;23.40;;
21356;SDS011;10836;53.068;18.234;2022-09-09T06:29:10;49.80;;;24.87;;
21356;SDS011;10836;53.068;18.234;2022-09-09T06:31:38;45.30;;;25.30;;
21356;SDS011;10836;53.068;18.234;2022-09-09T06:34:12;45.65;;;25.02;;
21356;SDS011;10836;53.068;18.234;2022-09-09T06:36:44;47.83;;;24.80;;
21356;SDS011;10836;53.068;18.234;2022-09-09T06:39:12;44.88;;;23.20;;
21356;SDS011;10836;53.068;18.234;2022-09-09T06:41:42;42.70;;;24.48;;
21356;SDS011;10836;53.068;18.234;2022-09-09T06:44:28;43.47;;;23.85;;
21356;SDS011;10836;53.068;18.234;2022-09-09T06:47:01;50.50;;;25.65;;
21356;SDS011;10836;53.068;18.234;2022-09-09T06:49:30;47.88;;;24.05;;
21356;SDS011;10836;53.068;18.234;2022-09-09T06:51:57;44.63;;;22.83;;
21356;SDS011;10836;53.068;18.234;2022-09-09T06:54:25;41.22;;;21.70;;
21356;SDS011;10836;53.068;18.234;2022-09-09T06:56:52;40.85;;;23.20;;
21356;SDS011;10836;53.068;18.234;2022-09-09T06:59:22;44.53;;;22.70;;
21356;SDS011;10836;53.068;18.234;2022-09-09T07:01:53;49.85;;;25.05;;
21356;SDS011;10836;53.068;18.234;2022-09-09T07:04:22;51.50;;;24.50;;
21356;SDS011;10836;53.068;18.234;2022-09-09T07:06:49;52.42;;;25.90;;
21356;SDS011;10836;53.068;18.234;2022-09-09T07:09:23;49.75;;;24.25;;
21356;SDS011;10836;53.068;18.234;2022-09-09T07:11:52;53.72;;;24.85;;
21356;SDS011;10836;53.068;18.234;2022-09-09T07:14:21;49.53;;;24.77;;
21356;SDS011;10836;53.068;18.234;2022-09-09T07:16:56;45.53;;;24.15;;
21356;SDS011;10836;53.068;18.234;2022-09-09T07:19:28;48.38;;;22.48;;
21356;SDS011;10836;53.068;18.234;2022-09-09T07:21:55;43.67;;;23.15;;
21356;SDS011;10836;53.068;18.234;2022-09-09T07:24:24;52.72;;;24.42;;
21356;SDS011;10836;53.068;18.234;2022-09-09T07:26:51;46.97;;;22.80;;
21356;SDS011;10836;53.068;18.234;2022-09-09T07:29:20;43.85;;;22.92;;
21356;SDS011;10836;53.068;18.234;2022-09-09T07:31:49;48.47;;;23.00;;
21356;SDS011;10836;53.068;18.234;2022-09-09T07:34:22;46.17;;;23.15;;
21356;SDS011;10836;53.068;18.234;2022-09-09T07:36:50;48.45;;;22.85;;
21356;SDS011;10836;53.068;18.234;2022-09-09T07:39:18;52.30;;;24.90;;
21356;SDS011;10836;53.068;18.234;2022-09-09T07:41:49;53.22;;;24.92;;
21356;SDS011;10836;53.068;18.234;2022-09-09T07:44:20;53.65;;;24.52;;
21356;SDS011;10836;53.068;18.234;2022-09-09T07:46:53;51.65;;;25.40;;
21356;SDS011;10836;53.068;18.234;2022-09-09T07:49:26;52.08;;;25.70;;
21356;SDS011;10836;53.068;18.234;2022-09-09T07:51:59;56.58;;;24.63;;
21356;SDS011;10836;53.068;18.234;2022-09-09T07:54:27;54.33;;;23.55;;
21356;SDS011;10836;53.068;18.234;2022-09-09T07:56:54;55.45;;;24.45;;
21356;SDS011;10836;53.068;18.234;2022-09-09T07:59:25;55.50;;;24.15;;
21356;SDS011;10836;53.068;18.234;2022-09-09T08:01:54;53.90;;;25.60;;
21356;SDS011;10836;53.068;18.234;2022-09-09T08:04:24;48.92;;;25.02;;
21356;SDS011;10836;53.068;18.234;2022-09-09T08:06:56;53.80;;;24.65;;
21356;SDS011;10836;53.068;18.234;2022-09-09T08:09:26;52.42;;;24.30;;
21356;SDS011;10836;53.068;18.234;2022-09-09T08:12:21;45.95;;;22.33;;
21356;SDS011;10836;53.068;18.234;2022-09-09T08:14:49;48.83;;;23.80;;
21356;SDS011;10836;53.068;18.234;2022-09-09T08:17:18;49.38;;;22.73;;
21356;SDS011;10836;53.068;18.234;2022-09-09T08:19:46;50.75;;;23.95;;
21356;SDS011;10836;53.068;18.234;2022-09-09T08:22:18;50.38;;;24.02;;
21356;SDS011;10836;53.068;18.234;2022-09-09T08:24:45;54.55;;;24.17;;
21356;SDS011;10836;53.068;18.234;2022-09-09T08:27:14;47.30;;;23.00;;
21356;SDS011;10836;53.068;18.234;2022-09-09T08:29:41;48.45;;;22.52;;
21356;SDS011;10836;53.068;18.234;2022-09-09T08:32:08;50.72;;;23.88;;
21356;SDS011;10836;53.068;18.234;2022-09-09T08:34:38;60.10;;;26.45;;
21356;SDS011;10836;53.068;18.234;2022-09-09T08:37:11;52.65;;;25.33;;
21356;SDS011;10836;53.068;18.234;2022-09-09T08:39:39;52.10;;;24.75;;
21356;SDS011;10836;53.068;18.234;2022-09-09T08:42:40;55.28;;;26.20;;
21356;SDS011;10836;53.068;18.234;2022-09-09T08:48:04;57.83;;;26.58;;
21356;SDS011;10836;53.068;18.234;2022-09-09T08:50:42;54.42;;;26.85;;
21356;SDS011;10836;53.068;18.234;2022-09-09T08:53:21;50.85;;;25.48;;
21356;SDS011;10836;53.068;18.234;2022-09-09T08:55:54;57.03;;;25.02;;
21356;SDS011;10836;53.068;18.234;2022-09-09T08:58:45;56.05;;;26.95;;
21356;SDS011;10836;53.068;18.234;2022-09-09T09:07:08;48.33;;;24.83;;
21356;SDS011;10836;53.068;18.234;2022-09-09T09:13:17;53.55;;;26.20;;
21356;SDS011;10836;53.068;18.234;2022-09-09T09:15:52;50.97;;;25.58;;
21356;SDS011;10836;53.068;18.234;2022-09-09T09:18:23;53.92;;;25.55;;
21356;SDS011;10836;53.068;18.234;2022-09-09T09:23:53;49.53;;;25.85;;
21356;SDS011;10836;53.068;18.234;2022-09-09T09:26:26;62.30;;;27.70;;
21356;SDS011;10836;53.068;18.234;2022-09-09T09:28:59;52.58;;;27.55;;
21356;SDS011;10836;53.068;18.234;2022-09-09T09:31:35;57.90;;;28.98;;
21356;SDS011;10836;53.068;18.234;2022-09-09T09:34:03;63.92;;;30.80;;
21356;SDS011;10836;53.068;18.234;2022-09-09T09:36:41;57.15;;;29.05;;
21356;SDS011;10836;53.068;18.234;2022-09-09T09:39:22;57.65;;;28.08;;
21356;SDS011;10836;53.068;18.234;2022-09-09T09:42:12;59.55;;;29.48;;
21356;SDS011;10836;53.068;18.234;2022-09-09T09:44:43;61.50;;;27.65;;
21356;SDS011;10836;53.068;18.234;2022-09-09T09:47:19;60.70;;;28.05;;
21356;SDS011;10836;53.068;18.234;2022-09-09T09:50:16;59.72;;;28.95;;
21356;SDS011;10836;53.068;18.234;2022-09-09T09:52:53;55.60;;;28.08;;
21356;SDS011;10836;53.068;18.234;2022-09-09T09:55:23;51.13;;;26.17;;
21356;SDS011;10836;53.068;18.234;2022-09-09T09:57:51;63.90;;;29.05;;
21356;SDS011;10836;53.068;18.234;2022-09-09T10:00:21;60.30;;;27.75;;
21356;SDS011;10836;53.068;18.234;2022-09-09T10:02:59;57.00;;;28.95;;
21356;SDS011;10836;53.068;18.234;2022-09-09T10:05:30;59.03;;;27.60;;
21356;SDS011;10836;53.068;18.234;2022-09-09T10:10:46;60.25;;;29.15;;
21356;SDS011;10836;53.068;18.234;2022-09-09T10:19:10;52.03;;;24.67;;
21356;SDS011;10836;53.068;18.234;2022-09-09T10:24:32;50.38;;;24.17;;
21356;SDS011;10836;53.068;18.234;2022-09-09T10:36:26;55.13;;;25.77;;
21356;SDS011;10836;53.068;18.234;2022-09-09T10:38:57;56.10;;;25.50;;
21356;SDS011;10836;53.068;18.234;2022-09-09T10:41:36;50.58;;;26.00;;
21356;SDS011;10836;53.068;18.234;2022-09-09T10:52:15;42.80;;;22.48;;
21356;SDS011;10836;53.068;18.234;2022-09-09T10:55:11;42.35;;;22.77;;
21356;SDS011;10836;53.068;18.234;2022-09-09T10:57:49;39.60;;;20.50;;
21356;SDS011;10836;53.068;18.234;2022-09-09T11:00:42;47.10;;;23.50;;
21356;SDS011;10836;53.068;18.234;2022-09-09T11:03:17;51.88;;;24.65;;
21356;SDS011;10836;53.068;18.234;2022-09-09T11:05:48;47.00;;;24.77;;
21356;SDS011;10836;53.068;18.234;2022-09-09T11:08:20;46.13;;;24.13;;
21356;SDS011;10836;53.068;18.234;2022-09-09T11:13:44;47.40;;;21.88;;
21356;SDS011;10836;53.068;18.234;2022-09-09T11:17:01;39.85;;;21.65;;
21356;SDS011;10836;53.068;18.234;2022-09-09T11:25:13;43.78;;;21.45;;
21356;SDS011;10836;53.068;18.234;2022-09-09T11:33:48;37.67;;;21.17;;
21356;SDS011;10836;53.068;18.234;2022-09-09T11:42:07;39.50;;;18.83;;
21356;SDS011;10836;53.068;18.234;2022-09-09T11:44:34;41.17;;;19.77;;
21356;SDS011;10836;53.068;18.234;2022-09-09T11:49:49;34.45;;;19.00;;
21356;SDS011;10836;53.068;18.234;2022-09-09T11:52:24;33.40;;;18.58;;
21356;SDS011;10836;53.068;18.234;2022-09-09T11:55:08;32.85;;;18.50;;
21356;SDS011;10836;53.068;18.234;2022-09-09T11:57:38;34.13;;;19.02;;
21356;SDS011;10836;53.068;18.234;2022-09-09T12:00:06;30.52;;;16.92;;
21356;SDS011;10836;53.068;18.234;2022-09-09T12:02:47;31.58;;;17.15;;
21356;SDS011;10836;53.068;18.234;2022-09-09T12:05:16;32.25;;;15.07;;
21356;SDS011;10836;53.068;18.234;2022-09-09T12:10:27;26.15;;;15.30;;
21356;SDS011;10836;53.068;18.234;2022-09-09T12:15:58;27.02;;;15.13;;
21356;SDS011;10836;53.068;18.234;2022-09-09T12:18:34;27.65;;;14.75;;
21356;SDS011;10836;53.068;18.234;2022-09-09T12:21:10;25.52;;;14.90;;
21356;SDS011;10836;53.068;18.234;2022-09-09T12:23:57;27.20;;;14.32;;
21356;SDS011;10836;53.068;18.234;2022-09-09T12:29:28;22.58;;;14.07;;
21356;SDS011;10836;53.068;18.234;2022-09-09T12:32:15;25.38;;;14.43;;
21356;SDS011;10836;53.068;18.234;2022-09-09T12:34:50;23.40;;;14.20;;
21356;SDS011;10836;53.068;18.234;2022-09-09T12:37:33;26.00;;;13.77;;
21356;SDS011;10836;53.068;18.234;2022-09-09T12:40:53;23.38;;;14.85;;
21356;SDS011;10836;53.068;18.234;2022-09-09T12:42:53;24.95;;;16.02;;
21356;SDS011;10836;53.068;18.234;2022-09-09T12:45:26;28.92;;;17.42;;
21356;SDS011;10836;53.068;18.234;2022-09-09T12:47:57;31.33;;;15.98;;
21356;SDS011;10836;53.068;18.234;2022-09-09T12:50:38;26.63;;;15.73;;
21356;SDS011;10836;53.068;18.234;2022-09-09T12:53:25;27.70;;;16.50;;
21356;SDS011;10836;53.068;18.234;2022-09-09T12:55:57;26.85;;;15.35;;
21356;SDS011;10836;53.068;18.234;2022-09-09T12:58:26;25.60;;;14.77;;
21356;SDS011;10836;53.068;18.234;2022-09-09T13:00:55;26.65;;;13.73;;
21356;SDS011;10836;53.068;18.234;2022-09-09T13:03:24;22.98;;;13.40;;
21356;SDS011;10836;53.068;18.234;2022-09-09T13:05:56;22.48;;;12.88;;
21356;SDS011;10836;53.068;18.234;2022-09-09T13:08:26;22.98;;;12.82;;
21356;SDS011;10836;53.068;18.234;2022-09-09T13:11:00;21.33;;;12.43;;
21356;SDS011;10836;53.068;18.234;2022-09-09T13:13:35;20.23;;;12.82;;
21356;SDS011;10836;53.068;18.234;2022-09-09T13:16:05;21.27;;;12.05;;
21356;SDS011;10836;53.068;18.234;2022-09-09T13:18:44;20.65;;;12.13;;
21356;SDS011;10836;53.068;18.234;2022-09-09T13:21:12;21.02;;;13.27;;
21356;SDS011;10836;53.068;18.234;2022-09-09T13:23:40;21.20;;;12.82;;
21356;SDS011;10836;53.068;18.234;2022-09-09T13:26:21;21.15;;;12.27;;
21356;SDS011;10836;53.068;18.234;2022-09-09T13:28:53;20.23;;;13.30;;
21356;SDS011;10836;53.068;18.234;2022-09-09T13:31:32;22.45;;;13.52;;
21356;SDS011;10836;53.068;18.234;2022-09-09T13:34:12;22.83;;;12.77;;
21356;SDS011;10836;53.068;18.234;2022-09-09T13:37:00;20.33;;;12.70;;
21356;SDS011;10836;53.068;18.234;2022-09-09T13:39:35;23.25;;;12.18;;
21356;SDS011;10836;53.068;18.234;2022-09-09T13:42:04;20.30;;;12.48;;
21356;SDS011;10836;53.068;18.234;2022-09-09T13:44:38;23.30;;;13.20;;
21356;SDS011;10836;53.068;18.234;2022-09-09T13:49:36;23.98;;;13.38;;
21356;SDS011;10836;53.068;18.234;2022-09-09T13:52:24;21.45;;;12.15;;
21356;SDS011;10836;53.068;18.234;2022-09-09T13:54:51;20.15;;;12.10;;
21356;SDS011;10836;53.068;18.234;2022-09-09T13:57:23;26.77;;;11.85;;
21356;SDS011;10836;53.068;18.234;2022-09-09T13:59:52;22.65;;;12.63;;
21356;SDS011;10836;53.068;18.234;2022-09-09T14:02:36;20.25;;;12.48;;
21356;SDS011;10836;53.068;18.234;2022-09-09T14:05:05;19.50;;;12.70;;
21356;SDS011;10836;53.068;18.234;2022-09-09T14:07:32;22.40;;;12.55;;
21356;SDS011;10836;53.068;18.234;2022-09-09T14:09:59;20.08;;;11.98;;
21356;SDS011;10836;53.068;18.234;2022-09-09T14:12:27;21.30;;;12.43;;
21356;SDS011;10836;53.068;18.234;2022-09-09T14:14:54;23.13;;;13.85;;
21356;SDS011;10836;53.068;18.234;2022-09-09T14:17:20;20.02;;;12.30;;
21356;SDS011;10836;53.068;18.234;2022-09-09T14:19:48;25.20;;;14.07;;
21356;SDS011;10836;53.068;18.234;2022-09-09T14:22:15;25.75;;;13.45;;
21356;SDS011;10836;53.068;18.234;2022-09-09T14:24:42;21.95;;;12.57;;
21356;SDS011;10836;53.068;18.234;2022-09-09T14:27:09;21.50;;;12.98;;
21356;SDS011;10836;53.068;18.234;2022-09-09T14:29:36;20.17;;;13.25;;
21356;SDS011;10836;53.068;18.234;2022-09-09T14:32:03;23.23;;;13.15;;
21356;SDS011;10836;53.068;18.234;2022-09-09T14:34:36;21.10;;;12.50;;
21356;SDS011;10836;53.068;18.234;2022-09-09T14:37:03;24.85;;;14.55;;
21356;SDS011;10836;53.068;18.234;2022-09-09T14:39:30;27.38;;;15.43;;
21356;SDS011;10836;53.068;18.234;2022-09-09T14:41:57;26.83;;;14.15;;
21356;SDS011;10836;53.068;18.234;2022-09-09T14:44:24;24.52;;;14.52;;
21356;SDS011;10836;53.068;18.234;2022-09-09T14:46:51;25.60;;;15.23;;
21356;SDS011;10836;53.068;18.234;2022-09-09T14:49:18;23.95;;;13.93;;
21356;SDS011;10836;53.068;18.234;2022-09-09T14:51:45;22.73;;;14.18;;
21356;SDS011;10836;53.068;18.234;2022-09-09T14:54:12;29.02;;;12.85;;
21356;SDS011;10836;53.068;18.234;2022-09-09T14:56:41;19.30;;;12.70;;
21356;SDS011;10836;53.068;18.234;2022-09-09T14:59:08;26.60;;;14.27;;
21356;SDS011;10836;53.068;18.234;2022-09-09T15:01:35;25.92;;;14.15;;
21356;SDS011;10836;53.068;18.234;2022-09-09T15:04:03;21.00;;;13.05;;
21356;SDS011;10836;53.068;18.234;2022-09-09T15:06:32;24.38;;;15.30;;
21356;SDS011;10836;53.068;18.234;2022-09-09T15:09:01;26.40;;;15.43;;
21356;SDS011;10836;53.068;18.234;2022-09-09T15:11:29;23.50;;;14.02;;
21356;SDS011;10836;53.068;18.234;2022-09-09T15:14:00;30.00;;;15.98;;
21356;SDS011;10836;53.068;18.234;2022-09-09T15:16:28;29.75;;;16.63;;
21356;SDS011;10836;53.068;18.234;2022-09-09T15:18:56;30.10;;;15.68;;
21356;SDS011;10836;53.068;18.234;2022-09-09T15:21:26;24.58;;;14.73;;
21356;SDS011;10836;53.068;18.234;2022-09-09T15:23:55;24.15;;;14.65;;
21356;SDS011;10836;53.068;18.234;2022-09-09T15:26:23;25.65;;;14.98;;
21356;SDS011;10836;53.068;18.234;2022-09-09T15:28:51;25.58;;;14.77;;
21356;SDS011;10836;53.068;18.234;2022-09-09T15:31:20;24.25;;;15.15;;
21356;SDS011;10836;53.068;18.234;2022-09-09T15:33:49;27.40;;;14.88;;
21356;SDS011;10836;53.068;18.234;2022-09-09T15:36:21;27.67;;;14.15;;
21356;SDS011;10836;53.068;18.234;2022-09-09T15:38:51;25.60;;;14.57;;
21356;SDS011;10836;53.068;18.234;2022-09-09T15:41:18;26.35;;;14.95;;
21356;SDS011;10836;53.068;18.234;2022-09-09T15:43:47;25.42;;;15.85;;
21356;SDS011;10836;53.068;18.234;2022-09-09T15:48:44;28.02;;;16.10;;
21356;SDS011;10836;53.068;18.234;2022-09-09T15:51:14;27.15;;;16.73;;
21356;SDS011;10836;53.068;18.234;2022-09-09T15:54:01;32.35;;;16.88;;
21356;SDS011;10836;53.068;18.234;2022-09-09T15:56:28;31.85;;;16.77;;
21356;SDS011;10836;53.068;18.234;2022-09-09T15:58:59;28.90;;;16.17;;
21356;SDS011;10836;53.068;18.234;2022-09-09T16:01:28;25.55;;;15.88;;
21356;SDS011;10836;53.068;18.234;2022-09-09T16:03:57;28.75;;;15.15;;
21356;SDS011;10836;53.068;18.234;2022-09-09T16:06:25;29.83;;;16.02;;
21356;SDS011;10836;53.068;18.234;2022-09-09T16:08:54;33.45;;;16.35;;
21356;SDS011;10836;53.068;18.234;2022-09-09T16:11:24;29.80;;;17.77;;
21356;SDS011;10836;53.068;18.234;2022-09-09T16:13:54;32.78;;;16.95;;
21356;SDS011;10836;53.068;18.234;2022-09-09T16:16:23;31.33;;;17.52;;
21356;SDS011;10836;53.068;18.234;2022-09-09T16:18:53;29.58;;;17.70;;
21356;SDS011;10836;53.068;18.234;2022-09-09T16:21:23;29.70;;;16.90;;
21356;SDS011;10836;53.068;18.234;2022-09-09T16:23:58;32.97;;;17.95;;
21356;SDS011;10836;53.068;18.234;2022-09-09T16:26:27;33.92;;;18.83;;
21356;SDS011;10836;53.068;18.234;2022-09-09T16:28:58;31.38;;;18.23;;
21356;SDS011;10836;53.068;18.234;2022-09-09T16:31:26;28.05;;;18.38;;
21356;SDS011;10836;53.068;18.234;2022-09-09T16:33:54;32.65;;;18.25;;
21356;SDS011;10836;53.068;18.234;2022-09-09T16:36:23;32.67;;;19.63;;